My Meet Scores
Irina Topchyi, Gym Kinetics Gymnastics - MyMeetScores.com
Top100 | Top Teams | Upcoming Meets | Completed Meets | Latest | Add Scores | Help| Support | Bookmark and Share

Irina Topchyi, Gym Kinetics Gymnastics
Personal Bests
LevelVault BarsBeamFloorAA
49.3509.000 9.0509.25035.900
58.8008.675 9.3009.25035.125
68.7508.400 9.0759.00034.600
79.4008.850 9.4009.50036.175
80.0008.300 7.2508.17523.725
Meet Scores
Date Meet Team Session Level Division Vault Bars Beam Floor AA
2014-02-15 BIG Dream Classic 2014 Gym Kinetics Gymnastics 1B 7 Senior B 9.400 12 8.350 15 7.350 20 8.950 17 34.050 17
2013-12-19 2013 Hawaiian Pineapple Classic Gym Kinetics Gymnastics B10 7 13+ 9.225 11 8.575 5 8.200 12 9.175 7 35.175 9
2013-12-06 Ultimate Wish Classic Gym Kinetics Gymnastics A 8 Senior3 0.000 12 8.300 9 7.250 13 8.175 12 23.725 11
2013-03-15 2013 Illinois Level 6, 7 State Meet Gym Kinetics Gymnastics 5 7 Sr.C 9.250 18 8.300 23 8.750 17 9.250 14 35.550 16
2013-02-22 Midwest Open 2013 Gym Kinetics Gymnastics 10A 7 13 & up 9.000 17 8.700 4 8.750 8 9.100 7 35.550 4
2013-02-16 BIG Dream Classic 2013 Gym Kinetics Gymnastics 1B 7 Senior B 9.150 11 8.200 10 8.750 8 9.500 3 35.600 7
2012-12-13 2012 Hawaiin Pineapple Classic Gym Kinetics Gymnastics 4 7 ages 13+ 9.100 5T 8.850 2 6.725 12 9.050 2 33.725 3
2012-11-30 Ultimate Wish Classic 2012 Gym Kinetics Gymnastics 7 L7 Sr A S3 9.275 7 8.450 9 9.150 2 9.300 8 36.175 4
2012-11-09 2012 Illinois Judges Cup Gym Kinetics Gymnastics 4A 7 13+ 9.050 9 0.000 15 9.400 2 9.400 1 27.850 14
2012-03-16 2012 Illinois Level 6, 7 State Championships Gym Kinetics Gymnastics 4 6 Sr.B 8.600 22T 7.750 21T 9.000 9T 9.000 9T 34.350 18
2012-02-25 Midwest Open 2012 Flipstar Gymnastics Academy 5B 6 Lvl 6: 12 & up 8.350 23 8.400 13 8.500 14 8.475 15 33.725 18
2012-02-10 IGI Chicago Style Gymnastics Gym Kinetics Gymnastics 511 6 12 & Over 8.650 23 8.250 11T 8.925 5T 8.700 12 34.525 7
2012-01-06 2012 St. Jude Invite Flipstar Gymnastics Academy 6A 6 Senior 8.750 5 8.100 9 9.075 3 8.675 4 34.600 4
2011-12-15 2011 Hawaiian Pineapple Classic Flipstar Gymnastics Academy 9B 6 12 8.150 11 7.600 11 8.750 5 7.950 9 32.450 10
2011-11-18 2011 Thanksgiving Classic Gym Kinetics Gymnastics 4 6 11+ 8.700 19T 8.150 14T 8.100 29T 8.025 23 32.975 22
2011-04-01 2011 Illinois Level 5 State Meet 3D Gymnastics and Cheer Inc 8 5 Jr.F 8.775 18 7.800 25 8.400 26 9.250 11 34.225 24
2011-02-19 Big Dream Classic 3D Gymnastics and Cheer Inc 2B 5 11yrs & up 8.600 13 8.675 10 8.900 6 8.950 3T 35.125 10T
2011-02-11 IGI Chicago Style Gymnastics Meet 3D Gymnastics and Cheer Inc 632 5 11 & Over 8.200 24T 8.350 21 8.700 21 9.000 10 34.250 20
2011-02-04 St. Valentine Classic 3D Gymnastics and Cheer Inc 2C 5 11 8.225 7 7.550 10 8.350 7 9.125 4 33.250 8
2011-01-21 Bravo Classic 3D Gymnastics and Cheer Inc 6B 5 11 7.800 7 8.025 8 8.950 2 8.900 3 33.675 4
2010-12-03 Make a Wish 3D Gymnastics and Cheer Inc 10 5 10-11 8.400 25 8.575 23 9.300 6 8.275 23T 34.550 20T
2010-11-12 North Judges Cup 3D Gymnastics and Cheer Inc 6B 5 11-12yrs 8.800 4 8.350 8 8.050 9 7.325 11 32.525 8
2010-03-26 2010 Illinois Level 4 State Championships 3D Gymnastics and Cheer Inc 4 Sr.B 9.225 14 9.000 16 9.000 14 8.675 21 35.900 17
2010-03-05 Midwest Twisters Harley Davidson Invite 3D Gymnastics and Cheer Inc B5 4 10 up 9.350 4 8.250 10 8.350 14 8.825 4 34.775 6
2010-02-20 BIG Dream Classic 2010 3D Gymnastics and Cheer Inc 2B 4 10 & up 8.900 5 8.600 9 8.950 6 9.250 1 35.700 4
2010-02-05 St. Valentines Classic 3D Gymnastics and Cheer Inc 5C 4 10 8.650 9 8.675 3 9.050 2 8.650 7 35.025 4
2010-01-23 2010 Cereal City Classic 3D Gymnastics and Cheer Inc 8 4 Ch 9-10 8.850 10T 7.450 20 8.575 11T 9.200 3 34.075 12
2009-12-27 Sports Fest 3D Gymnastics and Cheer Inc 4 9-11 9.100 8 7.600 23 6.650 27 9.050 8 32.400 33
2009-12-04 Ultimate Wish Classic 3D Gymnastics and Cheer Inc 2 4 Ch9-11 9.050 13T 8.200 21 8.175 18 8.750 7 34.175 16
2009-11-13 2009 North Judges Cup 3D Gymnastics and Cheer Inc 3B 4 9-10 8.700 11 7.500 14 8.250 8 8.800 3 33.250 8

www.lazysuits.com